sim
Sign-in with your pilot id or email,
or register
Callsign
Passwort

Schedule Details

Flight Number: OEO2583
Departure: Ibiza Airport (LEIB) at 09:05
Arrival: Munich Airport (EDDM) at 11:20

Weather Information
Getting current METAR information for LEIB 231200Z 22010KT 190V250 9999 FEW014 27/22 Q1012 NOSIG
Getting current METAR information for EDDM 231150Z 24006KT 220V320 9999 FEW010 BKN030 18/16 Q1010 TEMPO SHRA BKN020CB

Schedule Frequency

Route Map